Time;durP1;ratioP1;P1;durP2;ratioP2;P2;SDS_P1;SDS_P2;PMS_P1;PMS_P2;Temp;Humidity;BMP_temperature;BMP_pressure;BME280_temperature;BME280_humidity;BME280_pressure;Samples;Min_cycle;Max_cycle;Signal;HPM_P1;HPM_P2
2022/03/06 00:01:18;;;;;;;26.47;14.47;;;0.90;99.90;;;;;;5068132;28;20461;-85
2022/03/06 00:03:45;;;;;;;25.60;15.83;;;0.90;99.90;;;;;;5071802;28;20451;-82
2022/03/06 00:06:13;;;;;;;25.97;16.13;;;0.80;99.90;;;;;;5072221;28;20459;-82
2022/03/06 00:08:40;;;;;;;30.07;16.33;;;0.80;99.90;;;;;;5073035;28;20487;-85
2022/03/06 00:11:07;;;;;;;22.13;12.23;;;0.70;99.90;;;;;;5075414;28;20511;-84
2022/03/06 00:13:34;;;;;;;30.90;16.88;;;0.70;99.90;;;;;;5075184;28;20538;-82
2022/03/06 00:16:01;;;;;;;27.45;16.20;;;0.70;99.90;;;;;;5076372;28;20200;-83
2022/03/06 00:18:29;;;;;;;26.93;15.60;;;0.70;99.90;;;;;;5077258;28;20205;-83
2022/03/06 00:20:58;;;;;;;26.40;14.70;;;0.60;99.90;;;;;;5072344;28;20465;-83
2022/03/06 00:23:26;;;;;;;24.17;14.47;;;0.60;99.90;;;;;;5075021;28;20446;-84
2022/03/06 00:25:52;;;;;;;25.33;15.17;;;0.60;99.90;;;;;;5076371;28;20471;-85
2022/03/06 00:28:19;;;;;;;28.03;15.20;;;0.60;99.90;;;;;;5075705;28;20458;-83
2022/03/06 00:30:47;;;;;;;24.50;14.98;;;0.60;99.90;;;;;;5075174;28;20895;-83
2022/03/06 00:33:14;;;;;;;27.10;13.90;;;0.60;99.90;;;;;;5074291;28;20220;-84
2022/03/06 00:35:42;;;;;;;24.60;14.53;;;0.60;99.90;;;;;;5075802;28;20268;-85
2022/03/06 00:38:09;;;;;;;26.17;13.90;;;0.60;99.90;;;;;;5075350;28;20736;-84
2022/03/06 00:40:36;;;;;;;24.10;14.10;;;0.50;99.90;;;;;;5075547;28;20458;-84
2022/03/06 00:43:03;;;;;;;26.77;14.73;;;0.50;99.90;;;;;;5075069;28;20444;-83
2022/03/06 00:45:30;;;;;;;29.17;15.03;;;0.40;99.90;;;;;;5075801;28;20449;-84
2022/03/06 00:47:57;;;;;;;24.90;15.70;;;0.40;99.90;;;;;;5075493;28;20421;-83
2022/03/06 00:50:24;;;;;;;24.52;14.68;;;0.40;99.90;;;;;;5075591;28;20478;-83
2022/03/06 00:52:53;;;;;;;26.90;15.87;;;0.40;99.90;;;;;;5074538;28;20293;-82
2022/03/06 00:55:20;;;;;;;26.23;14.93;;;0.40;99.90;;;;;;5075317;28;20471;-84
2022/03/06 00:57:50;;;;;;;27.63;16.15;;;0.40;99.90;;;;;;5075907;28;20284;-83
2022/03/06 01:00:20;;;;;;;27.00;14.10;;;0.40;99.90;;;;;;5074847;28;20220;-83
2022/03/06 01:02:46;;;;;;;25.60;15.57;;;0.30;99.90;;;;;;5074705;28;20509;-83
2022/03/06 01:05:13;;;;;;;29.27;15.38;;;0.30;99.90;;;;;;5074775;28;20231;-84
2022/03/06 01:07:40;;;;;;;26.38;14.00;;;0.20;99.90;;;;;;5063361;28;20311;-84
2022/03/06 01:10:10;;;;;;;28.23;14.60;;;0.20;99.90;;;;;;5064226;28;20221;-83
2022/03/06 01:12:36;;;;;;;23.02;15.52;;;0.20;99.90;;;;;;5064425;28;20212;-84
2022/03/06 01:15:04;;;;;;;29.17;16.00;;;0.20;99.90;;;;;;5062694;28;20255;-84
2022/03/06 01:17:31;;;;;;;26.92;16.25;;;0.20;99.90;;;;;;5063280;28;20318;-84
2022/03/06 01:19:57;;;;;;;24.40;15.70;;;0.10;99.90;;;;;;5063840;28;20637;-84
2022/03/06 01:22:24;;;;;;;29.03;17.00;;;0.10;99.90;;;;;;5064080;28;20200;-84
2022/03/06 01:24:51;;;;;;;24.23;15.20;;;0.10;99.90;;;;;;5062783;28;20564;-84
2022/03/06 01:27:20;;;;;;;29.47;15.87;;;0.10;99.90;;;;;;5063421;28;20223;-83
2022/03/06 01:29:47;;;;;;;29.33;17.15;;;0.00;99.90;;;;;;5063447;28;20508;-84
2022/03/06 01:32:14;;;;;;;27.90;15.18;;;0.00;99.90;;;;;;5063015;28;20235;-84
2022/03/06 01:34:41;;;;;;;24.58;14.90;;;0.00;99.90;;;;;;5061948;28;20224;-84
2022/03/06 01:37:08;;;;;;;27.77;14.75;;;-0.10;99.90;;;;;;5062958;28;20215;-84
2022/03/06 01:39:35;;;;;;;22.77;14.02;;;-0.10;99.90;;;;;;5063637;28;20207;-83
2022/03/06 01:42:02;;;;;;;26.05;14.50;;;-0.10;99.90;;;;;;5064042;28;20211;-83
2022/03/06 01:44:31;;;;;;;26.73;15.70;;;-0.10;99.90;;;;;;5062352;28;20687;-84
2022/03/06 01:46:57;;;;;;;26.55;14.65;;;-0.10;99.90;;;;;;5062985;28;20291;-83
2022/03/06 01:49:24;;;;;;;22.88;13.85;;;-0.20;99.90;;;;;;5063998;28;20227;-83
2022/03/06 01:51:51;;;;;;;24.42;14.32;;;-0.20;99.90;;;;;;5064198;28;20205;-84
2022/03/06 01:54:18;;;;;;;25.15;14.63;;;-0.20;99.90;;;;;;5063248;28;20307;-83
2022/03/06 01:56:45;;;;;;;23.30;13.98;;;-0.20;99.90;;;;;;5063609;28;20230;-83
2022/03/06 01:59:12;;;;;;;21.63;13.60;;;-0.20;99.90;;;;;;5064736;28;20786;-84
2022/03/06 02:01:40;;;;;;;21.08;13.55;;;-0.20;99.90;;;;;;5062448;28;20295;-84
2022/03/06 02:04:07;;;;;;;22.33;13.10;;;-0.20;99.90;;;;;;5063404;28;20227;-83
2022/03/06 02:06:35;;;;;;;21.10;13.20;;;-0.20;99.90;;;;;;5065023;28;20206;-83
2022/03/06 02:09:02;;;;;;;26.98;14.40;;;-0.20;99.90;;;;;;5064298;28;20468;-83
2022/03/06 02:11:30;;;;;;;21.85;13.80;;;-0.20;99.90;;;;;;5063509;28;20207;-82
2022/03/06 02:13:57;;;;;;;25.30;13.93;;;-0.20;99.90;;;;;;5062697;28;20295;-84
2022/03/06 02:16:24;;;;;;;21.80;13.80;;;-0.20;99.90;;;;;;5063552;28;20271;-84
2022/03/06 02:18:52;;;;;;;26.00;14.88;;;-0.20;99.90;;;;;;5062049;28;20204;-84
2022/03/06 02:21:20;;;;;;;22.20;13.60;;;-0.20;99.90;;;;;;5063888;28;20648;-84
2022/03/06 02:23:47;;;;;;;22.23;13.50;;;-0.20;99.90;;;;;;5062372;28;20220;-84
2022/03/06 02:26:15;;;;;;;26.52;14.65;;;-0.20;99.90;;;;;;5063621;28;20227;-82
2022/03/06 02:28:43;;;;;;;24.55;14.25;;;-0.20;99.90;;;;;;5064634;28;20208;-83
2022/03/06 02:31:12;;;;;;;24.75;14.05;;;-0.20;99.90;;;;;;5063821;28;20244;-83
2022/03/06 02:33:39;;;;;;;26.20;14.13;;;-0.20;99.90;;;;;;5063804;28;20247;-84
2022/03/06 02:36:06;;;;;;;25.90;15.15;;;-0.20;99.90;;;;;;5064145;28;20217;-84
2022/03/06 02:38:34;;;;;;;23.08;14.23;;;-0.30;99.90;;;;;;5063520;28;20211;-83
2022/03/06 02:41:01;;;;;;;19.08;13.48;;;-0.20;99.90;;;;;;5064581;28;20299;-84
2022/03/06 02:43:28;;;;;;;25.88;13.50;;;-0.20;99.90;;;;;;5062381;28;20228;-84
2022/03/06 02:45:55;;;;;;;21.77;13.18;;;-0.20;99.90;;;;;;5063890;28;20224;-84
2022/03/06 02:48:22;;;;;;;24.58;14.57;;;-0.20;99.90;;;;;;5063369;28;20212;-84
2022/03/06 02:50:51;;;;;;;22.10;14.88;;;-0.20;99.90;;;;;;5063135;28;20236;-84
2022/03/06 02:53:20;;;;;;;21.83;12.13;;;-0.20;99.90;;;;;;5064674;28;20228;-84
2022/03/06 02:55:48;;;;;;;22.80;13.75;;;-0.20;99.90;;;;;;5068295;28;20204;-84
2022/03/06 02:58:15;;;;;;;19.65;12.25;;;-0.10;99.90;;;;;;5074570;28;20272;-84
2022/03/06 03:00:42;;;;;;;22.77;12.85;;;-0.20;99.90;;;;;;5076829;28;20191;-84
2022/03/06 03:03:09;;;;;;;25.35;13.68;;;-0.20;99.90;;;;;;5073421;28;20195;-82
2022/03/06 03:05:36;;;;;;;21.25;13.60;;;-0.20;99.90;;;;;;5076165;28;20201;-84
2022/03/06 03:08:03;;;;;;;20.23;12.98;;;-0.30;99.90;;;;;;5076151;28;20226;-84
2022/03/06 03:10:30;;;;;;;21.92;12.30;;;-0.20;99.90;;;;;;5076079;28;20268;-82
2022/03/06 03:12:58;;;;;;;21.50;13.60;;;-0.20;99.90;;;;;;5074204;28;20184;-83
2022/03/06 03:15:25;;;;;;;21.70;13.60;;;-0.20;99.90;;;;;;5075611;28;20223;-82
2022/03/06 03:17:52;;;;;;;23.70;13.35;;;-0.20;99.90;;;;;;5074677;28;20196;-84
2022/03/06 03:20:21;;;;;;;23.27;12.98;;;-0.20;99.90;;;;;;5074256;28;20203;-84
2022/03/06 03:22:47;;;;;;;20.33;12.25;;;-0.20;99.90;;;;;;5074416;28;20198;-83
2022/03/06 03:25:14;;;;;;;20.33;11.77;;;-0.20;99.90;;;;;;5073696;28;20270;-83
2022/03/06 03:27:41;;;;;;;19.92;12.90;;;-0.10;99.90;;;;;;5074412;28;20217;-84
2022/03/06 03:30:11;;;;;;;21.80;12.40;;;-0.10;99.90;;;;;;5074639;28;20232;-84
2022/03/06 03:32:38;;;;;;;22.17;12.50;;;-0.10;99.90;;;;;;5075280;28;20223;-85
2022/03/06 03:35:07;;;;;;;21.15;12.60;;;-0.10;99.90;;;;;;5073693;28;20225;-83
2022/03/06 03:37:34;;;;;;;19.92;12.30;;;0.00;99.90;;;;;;5074425;28;20275;-83
2022/03/06 03:40:00;;;;;;;18.40;11.90;;;0.10;99.90;;;;;;5074122;28;20223;-83
2022/03/06 03:42:27;;;;;;;20.83;12.02;;;0.10;99.90;;;;;;5074180;28;20227;-83
2022/03/06 03:44:54;;;;;;;21.30;12.95;;;0.20;99.90;;;;;;5073640;28;20227;-83
2022/03/06 03:47:22;;;;;;;24.52;14.18;;;0.30;99.90;;;;;;5074059;28;20205;-81
2022/03/06 03:49:50;;;;;;;21.00;12.52;;;0.30;99.90;;;;;;5073774;28;20225;-81
2022/03/06 03:52:17;;;;;;;21.80;12.60;;;0.40;99.90;;;;;;5073932;28;20209;-81
2022/03/06 03:54:44;;;;;;;24.70;13.93;;;0.40;99.90;;;;;;5073321;28;20283;-82
2022/03/06 03:57:13;;;;;;;19.20;12.10;;;0.40;99.90;;;;;;5074848;28;20212;-83
2022/03/06 03:59:40;;;;;;;26.23;14.30;;;0.40;99.90;;;;;;5074935;28;20215;-84
2022/03/06 04:02:07;;;;;;;20.13;12.23;;;0.40;99.90;;;;;;5076588;28;20262;-82
2022/03/06 04:04:35;;;;;;;22.00;14.70;;;0.50;99.90;;;;;;5077200;28;20711;-84
2022/03/06 04:07:02;;;;;;;24.13;14.35;;;0.60;99.90;;;;;;5077561;28;20199;-83
2022/03/06 04:09:29;;;;;;;23.42;12.95;;;0.60;99.90;;;;;;5077195;28;20231;-83
2022/03/06 04:11:58;;;;;;;22.33;13.18;;;0.70;99.90;;;;;;5076731;28;20204;-83
2022/03/06 04:14:25;;;;;;;24.42;14.82;;;0.60;99.90;;;;;;5073723;28;20227;-83
2022/03/06 04:16:52;;;;;;;28.92;15.15;;;0.60;99.90;;;;;;5070927;28;20219;-83
2022/03/06 04:19:20;;;;;;;20.73;14.38;;;0.50;99.90;;;;;;5077339;28;20266;-82
2022/03/06 04:21:48;;;;;;;29.33;15.25;;;0.50;99.90;;;;;;5070230;28;20200;-83
2022/03/06 04:24:15;;;;;;;25.13;14.70;;;0.50;99.90;;;;;;5063563;28;20306;-83
2022/03/06 04:26:42;;;;;;;22.20;13.65;;;0.60;99.90;;;;;;5063630;28;20267;-83
2022/03/06 04:29:08;;;;;;;22.85;13.48;;;0.60;99.90;;;;;;5063068;28;20236;-83
2022/03/06 04:31:36;;;;;;;18.70;14.07;;;0.70;99.90;;;;;;5063308;28;20202;-82
2022/03/06 04:34:03;;;;;;;23.85;14.05;;;0.70;99.90;;;;;;5062890;28;20226;-83
2022/03/06 04:36:30;;;;;;;25.02;14.07;;;0.70;99.90;;;;;;5062726;28;20205;-83
2022/03/06 04:38:58;;;;;;;20.60;13.43;;;0.70;99.90;;;;;;5062646;28;20272;-84
2022/03/06 04:41:26;;;;;;;25.75;14.20;;;0.70;99.90;;;;;;5059077;28;20205;-83
2022/03/06 04:43:52;;;;;;;22.80;13.48;;;0.80;99.90;;;;;;5061881;28;20304;-83
2022/03/06 04:46:19;;;;;;;25.38;14.77;;;0.70;99.90;;;;;;5062268;28;20274;-83
2022/03/06 04:48:47;;;;;;;21.13;13.82;;;0.70;99.90;;;;;;5061964;28;20208;-83
2022/03/06 04:51:13;;;;;;;21.65;13.43;;;0.70;99.90;;;;;;5061917;28;20222;-82
2022/03/06 04:53:40;;;;;;;18.27;11.80;;;0.60;99.90;;;;;;5064594;28;20289;-83
2022/03/06 04:56:08;;;;;;;23.23;12.70;;;0.60;99.90;;;;;;5064656;28;20208;-83
2022/03/06 04:58:36;;;;;;;21.27;12.85;;;0.50;99.90;;;;;;5065031;28;20290;-83
2022/03/06 05:01:03;;;;;;;22.40;14.02;;;0.40;99.90;;;;;;5079029;28;20211;-83
2022/03/06 05:03:29;;;;;;;22.90;13.63;;;0.30;99.90;;;;;;5084905;28;20236;-83
2022/03/06 05:05:56;;;;;;;22.05;12.90;;;0.20;99.90;;;;;;5074561;28;20225;-83
2022/03/06 05:08:26;;;;;;;25.92;15.52;;;0.20;99.90;;;;;;5067668;28;20574;-84
2022/03/06 05:10:53;;;;;;;21.52;13.40;;;0.10;99.90;;;;;;5066443;28;20221;-86
2022/03/06 05:13:21;;;;;;;20.13;13.00;;;0.00;99.90;;;;;;5064999;28;20209;-83
2022/03/06 05:15:48;;;;;;;21.27;13.55;;;-0.10;99.90;;;;;;5066564;28;20210;-82
2022/03/06 05:18:15;;;;;;;24.20;14.80;;;-0.10;99.90;;;;;;5066962;28;20197;-83
2022/03/06 05:20:42;;;;;;;20.80;14.35;;;-0.20;99.90;;;;;;5065499;28;20211;-83
2022/03/06 05:23:09;;;;;;;22.70;14.13;;;-0.30;99.90;;;;;;5062542;28;20203;-82
2022/03/06 05:25:36;;;;;;;22.58;14.90;;;-0.30;99.90;;;;;;5062892;28;20226;-83
2022/03/06 05:28:03;;;;;;;19.88;13.15;;;-0.40;99.90;;;;;;5063710;28;20606;-83
2022/03/06 05:30:31;;;;;;;23.65;14.45;;;-0.40;99.90;;;;;;5063260;28;20231;-83
2022/03/06 05:33:01;;;;;;;20.63;12.45;;;-0.40;99.90;;;;;;5063146;28;20198;-82
2022/03/06 05:35:28;;;;;;;19.02;12.68;;;-0.50;99.90;;;;;;5063523;28;20236;-84
2022/03/06 05:37:55;;;;;;;19.35;12.75;;;-0.50;99.90;;;;;;5061992;28;20203;-84
2022/03/06 05:40:22;;;;;;;18.60;13.18;;;-0.50;99.90;;;;;;5057078;28;20219;-84
2022/03/06 05:42:50;;;;;;;20.48;12.80;;;-0.50;99.90;;;;;;5063001;28;20204;-82
2022/03/06 05:45:16;;;;;;;21.10;12.50;;;-0.60;99.90;;;;;;5061868;28;20227;-83
2022/03/06 05:47:44;;;;;;;19.50;12.85;;;-0.50;99.90;;;;;;5048599;28;20222;-84
2022/03/06 05:50:12;;;;;;;22.17;12.50;;;-0.60;99.90;;;;;;5059172;28;20419;-86
2022/03/06 05:52:39;;;;;;;22.70;12.98;;;-0.50;99.90;;;;;;5057528;28;20203;-86
2022/03/06 05:55:07;;;;;;;21.35;12.85;;;-0.60;99.90;;;;;;5058179;28;20230;-86
2022/03/06 05:57:34;;;;;;;23.45;13.95;;;-0.60;99.90;;;;;;5057987;28;20704;-86
2022/03/06 06:00:01;;;;;;;16.17;11.57;;;-0.60;99.90;;;;;;5058776;28;20230;-85
2022/03/06 06:02:27;;;;;;;20.55;12.85;;;-0.60;99.90;;;;;;5059167;28;20268;-86
2022/03/06 06:04:56;;;;;;;16.20;11.30;;;-0.60;99.90;;;;;;5057908;28;20231;-86
2022/03/06 06:07:25;;;;;;;17.55;12.05;;;-0.60;99.90;;;;;;5058698;28;20207;-87
2022/03/06 06:09:52;;;;;;;20.75;13.00;;;-0.60;99.90;;;;;;5059166;28;20582;-85
2022/03/06 06:12:18;;;;;;;20.42;11.93;;;-0.60;99.90;;;;;;5059067;28;20208;-87
2022/03/06 06:14:45;;;;;;;19.45;13.80;;;-0.60;99.90;;;;;;5058755;28;20240;-81
2022/03/06 06:17:12;;;;;;;25.73;13.30;;;-0.60;99.90;;;;;;5059012;28;20225;-82
2022/03/06 06:19:39;;;;;;;23.58;15.07;;;-0.40;99.90;;;;;;5059535;28;20223;-83
2022/03/06 06:22:07;;;;;;;21.45;13.68;;;-0.40;99.90;;;;;;5059445;28;20204;-83
2022/03/06 06:24:34;;;;;;;25.08;14.07;;;-0.40;99.90;;;;;;5057911;28;20618;-81
2022/03/06 06:27:01;;;;;;;25.23;14.00;;;-0.30;99.90;;;;;;5072553;28;20199;-82
2022/03/06 06:29:28;;;;;;;24.73;14.80;;;-0.30;99.90;;;;;;5079316;28;20257;-82
2022/03/06 06:31:55;;;;;;;21.55;14.15;;;-0.20;99.90;;;;;;5054837;28;20232;-82
2022/03/06 06:34:22;;;;;;;18.83;13.00;;;-0.10;99.90;;;;;;5058571;28;20253;-83
2022/03/06 06:36:49;;;;;;;20.70;12.90;;;0.00;99.90;;;;;;5058258;28;20212;-83
2022/03/06 06:39:17;;;;;;;25.58;14.00;;;0.10;99.90;;;;;;5062264;28;20205;-82
2022/03/06 06:41:44;;;;;;;18.58;12.90;;;0.20;99.90;;;;;;5078943;28;20202;-83
2022/03/06 06:44:11;;;;;;;18.05;11.70;;;0.20;99.90;;;;;;5059595;28;20318;-82
2022/03/06 06:46:38;;;;;;;19.90;14.00;;;0.40;99.90;;;;;;5059963;28;20204;-82
2022/03/06 06:49:05;;;;;;;20.40;12.57;;;1.70;99.90;;;;;;5059087;28;20204;-83
2022/03/06 06:51:32;;;;;;;18.33;10.90;;;0.50;99.90;;;;;;5062388;28;20274;-83
2022/03/06 06:53:58;;;;;;;21.58;12.65;;;0.60;99.90;;;;;;5061378;28;20247;-84
2022/03/06 06:56:27;;;;;;;19.80;12.13;;;0.60;99.90;;;;;;5061949;28;20208;-84
2022/03/06 06:58:53;;;;;;;16.88;11.50;;;0.80;99.90;;;;;;5063121;28;20225;-83
2022/03/06 07:01:20;;;;;;;19.53;11.53;;;0.80;99.90;;;;;;5061768;28;20291;-83
2022/03/06 07:03:47;;;;;;;21.98;13.15;;;0.70;99.90;;;;;;5060685;28;20472;-85
2022/03/06 07:06:14;;;;;;;20.77;12.98;;;0.90;99.90;;;;;;5061840;28;20258;-84
2022/03/06 07:08:41;;;;;;;21.65;12.82;;;1.00;99.90;;;;;;5061259;28;20219;-84
2022/03/06 07:11:08;;;;;;;20.63;12.05;;;0.90;99.90;;;;;;5060940;28;20349;-84
2022/03/06 07:13:37;;;;;;;19.92;11.68;;;1.00;99.90;;;;;;5059905;28;20224;-84
2022/03/06 07:16:04;;;;;;;22.52;12.00;;;1.10;99.90;;;;;;5061094;28;20200;-84
2022/03/06 07:18:30;;;;;;;20.45;11.90;;;1.20;99.90;;;;;;5051644;28;20207;-83
2022/03/06 07:20:57;;;;;;;20.88;12.55;;;1.20;99.90;;;;;;5061616;28;20279;-83
2022/03/06 07:23:24;;;;;;;23.17;13.40;;;1.10;99.90;;;;;;5061309;28;20237;-84
2022/03/06 07:25:51;;;;;;;21.00;12.40;;;1.10;99.90;;;;;;5061603;28;20433;-84
2022/03/06 07:28:18;;;;;;;19.08;12.52;;;1.20;99.90;;;;;;5062063;28;20972;-84
2022/03/06 07:30:48;;;;;;;18.40;12.30;;;1.20;99.90;;;;;;5061985;28;20243;-85
2022/03/06 07:33:15;;;;;;;19.57;13.40;;;1.40;99.90;;;;;;5056496;28;20585;-83
2022/03/06 07:35:42;;;;;;;19.87;12.97;;;1.60;99.90;;;;;;5078031;28;20429;-84
2022/03/06 07:38:09;;;;;;;20.58;11.60;;;1.70;99.90;;;;;;5061573;28;20930;-84
2022/03/06 07:40:37;;;;;;;20.92;12.20;;;1.90;99.90;;;;;;5057267;28;20219;-83
2022/03/06 07:43:04;;;;;;;19.90;11.30;;;2.00;99.90;;;;;;5063482;28;20668;-85
2022/03/06 07:45:31;;;;;;;21.23;12.87;;;2.10;99.90;;;;;;5063178;28;20515;-85
2022/03/06 07:47:59;;;;;;;16.63;12.10;;;2.90;99.90;;;;;;5065506;28;20503;-84
2022/03/06 07:50:26;;;;;;;19.60;11.40;;;2.40;99.90;;;;;;5060949;28;20474;-84
2022/03/06 07:52:56;;;;;;;17.93;12.80;;;2.70;99.90;;;;;;5062712;28;20551;-84
2022/03/06 07:55:23;;;;;;;16.77;10.97;;;2.80;99.90;;;;;;5062799;28;20497;-85
2022/03/06 07:57:52;;;;;;;17.03;11.17;;;3.10;99.90;;;;;;5063708;28;20458;-84
2022/03/06 08:00:19;;;;;;;18.30;10.93;;;2.90;99.90;;;;;;5062632;28;20510;-83
2022/03/06 08:02:45;;;;;;;20.73;12.27;;;3.10;99.90;;;;;;5061001;28;20458;-84
2022/03/06 08:05:14;;;;;;;16.27;11.40;;;3.10;99.90;;;;;;5061440;28;20457;-84
2022/03/06 08:07:40;;;;;;;17.50;11.67;;;3.10;99.90;;;;;;5062782;28;20872;-83
2022/03/06 08:10:09;;;;;;;17.43;11.73;;;2.90;99.90;;;;;;5063875;28;20460;-84
2022/03/06 08:12:36;;;;;;;18.40;12.13;;;3.00;99.90;;;;;;5043439;28;20825;-84
2022/03/06 08:15:03;;;;;;;19.90;12.97;;;3.00;99.90;;;;;;5062088;28;20985;-84
2022/03/06 08:17:30;;;;;;;16.40;12.33;;;2.80;99.90;;;;;;5063476;28;20456;-84
2022/03/06 08:19:56;;;;;;;18.77;12.30;;;2.90;99.90;;;;;;5063948;28;20462;-84
2022/03/06 08:22:25;;;;;;;21.00;13.43;;;3.10;99.90;;;;;;5063171;28;20516;-85
2022/03/06 08:24:53;;;;;;;19.37;12.90;;;3.10;99.90;;;;;;5062854;28;20578;-84
2022/03/06 08:27:21;;;;;;;15.77;11.70;;;3.00;99.90;;;;;;5062369;28;20862;-85
2022/03/06 08:29:48;;;;;;;19.10;12.13;;;3.20;99.90;;;;;;5062815;28;20881;-84
2022/03/06 08:32:14;;;;;;;17.53;11.10;;;3.20;99.90;;;;;;5062559;28;20948;-85
2022/03/06 08:34:41;;;;;;;16.83;11.30;;;3.30;99.90;;;;;;5062177;28;20507;-85
2022/03/06 08:37:08;;;;;;;17.17;11.03;;;3.70;99.90;;;;;;5062994;28;20442;-85
2022/03/06 08:39:57;;;;;;;17.30;12.43;;;4.10;99.90;;;;;;5063608;28;20466;-84
2022/03/06 08:42:25;;;;;;;16.17;11.10;;;4.20;99.90;;;;;;5057474;28;20471;-82
2022/03/06 08:44:52;;;;;;;18.50;11.37;;;4.40;99.90;;;;;;5062105;28;20527;-84
2022/03/06 08:47:19;;;;;;;20.33;12.70;;;4.50;99.90;;;;;;5061697;28;20455;-84
2022/03/06 08:49:46;;;;;;;17.73;11.73;;;4.60;99.90;;;;;;5063134;28;20505;-83
2022/03/06 08:52:12;;;;;;;27.43;12.80;;;4.70;99.90;;;;;;5063766;28;20491;-83
2022/03/06 08:54:39;;;;;;;15.50;11.10;;;4.80;99.90;;;;;;5061322;28;20563;-84
2022/03/06 08:57:08;;;;;;;16.50;10.97;;;5.10;99.90;;;;;;5062923;28;20519;-84
2022/03/06 08:59:34;;;;;;;14.87;11.60;;;5.00;99.90;;;;;;5062139;28;20447;-84
2022/03/06 09:02:01;;;;;;;18.63;13.43;;;5.30;99.90;;;;;;5061822;28;20456;-85
2022/03/06 09:04:29;;;;;;;17.63;10.90;;;5.60;99.90;;;;;;5061499;28;20476;-84
2022/03/06 09:06:56;;;;;;;17.23;12.23;;;5.70;99.90;;;;;;5063340;28;20974;-85
2022/03/06 09:09:23;;;;;;;17.10;12.23;;;5.90;99.90;;;;;;5061849;28;20805;-83
2022/03/06 09:11:49;;;;;;;14.53;10.70;;;5.90;99.90;;;;;;5062168;28;20482;-84
2022/03/06 09:14:18;;;;;;;15.30;12.40;;;6.40;99.90;;;;;;5060840;28;20557;-85
2022/03/06 09:16:44;;;;;;;17.00;12.10;;;7.30;99.90;;;;;;5062062;28;20450;-84
2022/03/06 09:19:11;;;;;;;13.77;10.93;;;7.30;99.90;;;;;;5060012;28;20589;-83
2022/03/06 09:21:39;;;;;;;16.57;11.60;;;8.00;99.90;;;;;;5058300;28;20459;-84
2022/03/06 09:24:08;;;;;;;13.63;9.93;;;7.60;99.90;;;;;;5059159;28;20474;-84
2022/03/06 09:26:35;;;;;;;15.17;10.30;;;8.00;99.90;;;;;;5060278;28;20895;-85
2022/03/06 09:29:01;;;;;;;16.30;11.73;;;9.10;99.90;;;;;;5061971;28;20462;-84
2022/03/06 09:31:33;;;;;;;15.23;11.47;;;9.50;99.90;;;;;;5062965;28;20490;-85
2022/03/06 09:34:00;;;;;;;14.40;10.80;;;9.90;99.90;;;;;;5050186;28;21071;-85
2022/03/06 09:36:26;;;;;;;15.73;12.67;;;9.90;99.90;;;;;;5060686;28;20618;-85
2022/03/06 09:38:53;;;;;;;14.63;11.20;;;10.40;99.90;;;;;;5061393;28;21025;-84
2022/03/06 09:41:27;;;;;;;12.30;10.00;;;11.50;99.90;;;;;;5059688;28;20474;-82
2022/03/06 09:43:56;;;;;;;13.40;10.50;;;13.20;99.90;;;;;;5059710;28;20495;-83
2022/03/06 09:46:24;;;;;;;12.77;9.73;;;14.20;99.90;;;;;;5060211;28;20456;-83
2022/03/06 09:48:52;;;;;;;11.10;9.20;;;15.70;98.80;;;;;;5060835;28;20548;-83
2022/03/06 09:51:20;;;;;;;14.83;11.13;;;16.30;91.70;;;;;;5059991;28;20493;-83
2022/03/06 09:53:47;;;;;;;11.67;9.97;;;16.30;83.80;;;;;;5059215;28;20471;-83
2022/03/06 09:56:14;;;;;;;14.20;12.10;;;16.50;78.30;;;;;;5058350;28;20464;-83
2022/03/06 09:58:41;;;;;;;16.00;12.87;;;14.90;75.00;;;;;;5060128;28;20864;-82
2022/03/06 10:01:08;;;;;;;14.27;11.30;;;14.80;77.00;;;;;;5060793;28;20460;-83
2022/03/06 10:03:36;;;;;;;13.37;10.03;;;14.20;78.10;;;;;;5059553;28;20814;-83
2022/03/06 10:06:07;;;;;;;12.50;11.20;;;16.10;80.30;;;;;;5060351;28;20851;-84
2022/03/06 10:08:34;;;;;;;16.40;11.70;;;15.90;72.10;;;;;;5040073;28;20441;-83
2022/03/06 10:11:06;;;;;;;13.43;11.27;;;15.30;71.80;;;;;;5055875;28;20508;-83
2022/03/06 10:13:34;;;;;;;13.50;10.70;;;15.20;69.70;;;;;;5059480;28;20869;-84
2022/03/06 10:16:08;;;;;;;12.83;10.80;;;15.60;83.10;;;;;;5059517;28;20474;-83
2022/03/06 10:18:36;;;;;;;12.00;10.00;;;15.30;87.00;;;;;;5056075;28;20831;-82
2022/03/06 10:21:12;;;;;;;13.87;11.60;;;15.10;70.00;;;;;;5054803;28;20464;-83
2022/03/06 10:23:39;;;;;;;11.00;9.90;;;15.40;70.00;;;;;;5056481;28;20477;-84
2022/03/06 10:26:08;;;;;;;16.00;9.80;;;15.50;70.80;;;;;;5056491;28;20840;-83
2022/03/06 10:28:48;;;;;;;13.67;11.00;;;16.80;67.60;;;;;;5056929;28;20452;-83
2022/03/06 10:31:16;;;;;;;11.33;9.73;;;16.00;67.40;;;;;;5060452;28;20951;-84
2022/03/06 10:33:59;;;;;;;11.87;9.77;;;17.10;67.40;;;;;;5059112;28;20994;-83
2022/03/06 10:36:41;;;;;;;13.83;10.53;;;16.20;67.40;;;;;;5060033;28;20549;-84
2022/03/06 10:39:14;;;;;;;11.73;8.60;;;16.10;66.80;;;;;;5059306;28;20459;-83
2022/03/06 10:41:44;;;;;;;10.50;9.40;;;17.40;63.10;;;;;;5059960;28;20475;-84
2022/03/06 10:44:12;;;;;;;12.57;11.27;;;18.30;63.80;;;;;;5065522;28;20514;-82
2022/03/06 10:46:40;;;;;;;12.20;10.63;;;17.20;59.80;;;;;;5059111;28;20464;-84
2022/03/06 10:49:12;;;;;;;11.30;10.10;;;17.80;59.80;;;;;;5057895;28;20571;-83
2022/03/06 10:51:43;;;;;;;9.97;8.77;;;17.40;58.80;;;;;;5059237;28;20486;-84
2022/03/06 10:54:10;;;;;;;12.23;10.77;;;17.80;61.80;;;;;;5058352;28;20532;-84
2022/03/06 10:56:38;;;;;;;11.90;9.90;;;17.50;58.60;;;;;;5058366;28;20838;-84
2022/03/06 10:59:06;;;;;;;11.13;10.00;;;18.70;57.20;;;;;;5060261;28;20611;-84
2022/03/06 11:01:34;;;;;;;10.27;9.00;;;19.10;57.50;;;;;;5057567;28;20489;-83
2022/03/06 11:04:03;;;;;;;13.23;9.50;;;17.90;56.60;;;;;;5058746;28;20562;-84
2022/03/06 11:06:38;;;;;;;11.20;9.10;;;16.80;53.70;;;;;;5059345;28;21050;-84
2022/03/06 11:09:10;;;;;;;10.80;9.60;;;17.00;56.30;;;;;;5060216;28;20554;-84
2022/03/06 11:11:39;;;;;;;10.40;9.30;;;16.80;53.40;;;;;;5057576;28;20509;-85
2022/03/06 11:14:06;;;;;;;11.43;10.23;;;17.70;55.60;;;;;;5058900;28;20482;-83
2022/03/06 11:16:33;;;;;;;11.00;9.77;;;18.70;54.90;;;;;;5059048;28;20461;-83
2022/03/06 11:19:00;;;;;;;11.03;9.93;;;19.70;53.40;;;;;;5059447;28;20447;-83
2022/03/06 11:21:29;;;;;;;10.60;9.60;;;18.20;51.70;;;;;;5058171;28;20455;-84
2022/03/06 11:23:59;;;;;;;10.83;9.70;;;20.50;53.60;;;;;;5057602;28;20479;-84
2022/03/06 11:26:56;;;;;;;18.57;16.80;;;20.60;51.40;;;;;;5058344;28;20457;-83
2022/03/06 11:29:54;;;;;;;32.37;29.03;;;18.50;48.60;;;;;;5058276;28;20451;-83
2022/03/06 11:32:25;;;;;;;11.57;10.33;;;18.80;49.20;;;;;;5058663;28;20498;-83
2022/03/06 11:34:54;;;;;;;17.00;15.40;;;18.10;49.10;;;;;;5057275;28;20495;-83
2022/03/06 11:37:21;;;;;;;49.70;45.40;;;18.40;50.50;;;;;;5058885;28;20452;-83
2022/03/06 11:39:50;;;;;;;55.47;50.60;;;16.40;50.00;;;;;;5057530;28;20455;-83
2022/03/06 11:43:01;;;;;;;194.87;179.83;;;14.40;52.90;;;;;;5058164;28;20529;-83
2022/03/06 11:45:52;;;;;;;14.83;10.90;;;11.80;53.90;;;;;;5010348;28;20851;-82
2022/03/06 11:49:12;;;;;;;16.17;12.87;;;10.80;56.60;;;;;;5055777;28;20502;-82
2022/03/06 11:51:49;;;;;;;14.47;11.77;;;11.30;59.70;;;;;;5058640;28;20451;-81
2022/03/06 11:54:18;;;;;;;16.67;12.83;;;10.60;59.50;;;;;;5057670;28;20470;-82
2022/03/06 11:57:02;;;;;;;52.87;36.30;;;10.80;59.80;;;;;;5056911;28;20463;-82
2022/03/06 11:59:40;;;;;;;52.73;38.40;;;10.30;59.10;;;;;;5057719;28;21009;-82
2022/03/06 12:02:20;;;;;;;88.50;62.13;;;10.90;59.10;;;;;;5046370;28;20435;-82
2022/03/06 12:04:56;;;;;;;233.57;135.83;;;10.60;58.80;;;;;;5057375;28;20478;-82
2022/03/06 12:07:26;;;;;;;39.70;30.63;;;10.10;59.50;;;;;;5052160;28;20454;-82
2022/03/06 12:09:54;;;;;;;308.30;190.33;;;9.70;60.60;;;;;;5057900;28;20965;-83
2022/03/06 12:12:22;;;;;;;126.20;77.20;;;9.80;63.70;;;;;;5057999;28;20832;-83
2022/03/06 12:14:51;;;;;;;297.33;157.47;;;10.40;77.50;;;;;;5057236;28;20478;-82
2022/03/06 12:17:38;;;;;;;227.30;160.97;;;10.20;59.70;;;;;;5057899;28;20459;-83
2022/03/06 12:20:26;;;;;;;141.07;100.23;;;10.10;58.10;;;;;;5057447;28;20456;-82
2022/03/06 12:23:06;;;;;;;29.83;19.53;;;10.10;59.70;;;;;;5059827;28;20479;-81
2022/03/06 12:25:34;;;;;;;24.10;19.10;;;9.40;78.90;;;;;;5060183;28;20517;-80
2022/03/06 12:28:25;;;;;;;115.80;84.03;;;9.30;63.20;;;;;;5061384;28;20541;-81
2022/03/06 12:30:56;;;;;;;44.33;33.87;;;9.70;62.60;;;;;;5059917;28;20437;-82
2022/03/06 12:33:33;;;;;;;60.13;47.17;;;14.00;58.70;;;;;;5059681;28;20481;-81
2022/03/06 12:36:24;;;;;;;11.27;9.93;;;14.60;59.00;;;;;;5061231;28;21006;-82
2022/03/06 12:38:57;;;;;;;12.73;11.53;;;17.90;55.10;;;;;;5046709;28;20542;-82
2022/03/06 12:41:25;;;;;;;10.40;9.40;;;18.30;52.10;;;;;;5062190;28;20881;-83